Time;durP1;ratioP1;P1;durP2;ratioP2;P2;SDS_P1;SDS_P2;PMS_P1;PMS_P2;Temp;Humidity;BMP_temperature;BMP_pressure;BME280_temperature;BME280_humidity;BME280_pressure;Samples;Min_cycle;Max_cycle;Signal;HPM_P1;HPM_P2
2021/03/02 00:00:27;;;;;;;;;;;;;;;;;;4989047;28;19980;-73
2021/03/02 00:02:53;;;;;;;;;;;;;;;;;;4991327;28;19973;-73
2021/03/02 00:05:19;;;;;;;;;;;;;;;;;;4988749;28;19930;-73
2021/03/02 00:07:45;;;;;;;;;;;;;;;;;;4990358;28;19933;-73
2021/03/02 00:10:11;;;;;;;;;;;;;;;;;;4990055;28;19926;-73
2021/03/02 00:12:37;;;;;;;;;;;;;;;;;;4973053;28;19933;-73
2021/03/02 00:15:03;;;;;;;;;;;;;;;;;;4983205;28;19941;-73
2021/03/02 00:17:29;;;;;;;;;;;;;;;;;;4988544;28;19926;-73
2021/03/02 00:19:55;;;;;;;;;;;;;;;;;;4990962;28;19933;-73
2021/03/02 00:22:21;;;;;;;;;;;;;;;;;;4988689;28;19973;-73
2021/03/02 00:24:46;;;;;;;;;;;;;;;;;;4990209;28;19933;-73
2021/03/02 00:27:12;;;;;;;;;;;;;;;;;;4985713;28;19925;-73
2021/03/02 00:29:39;;;;;;;;;;;;;;;;;;4986364;28;20469;-73
2021/03/02 00:32:04;;;;;;;;;;;;;;;;;;4990274;28;20387;-73
2021/03/02 00:34:30;;;;;;;;;;;;;;;;;;4988492;28;19925;-72
2021/03/02 00:47:27;;;;;;;;;;;;;;;;;;5058430;27;20023;-71
2021/03/02 00:49:53;;;;;;;;;;;;;;;;;;5063990;28;19974;-72
2021/03/02 00:52:19;;;;;;;;;;;;;;;;;;5055886;28;20324;-72
2021/03/02 00:54:45;;;;;;;;;;;;;;;;;;5064017;28;19932;-72
2021/03/02 00:57:11;;;;;;;;;;;;;;;;;;5062247;28;20366;-72
2021/03/02 00:59:37;;;;;;;;;;;;;;;;;;5041729;28;19929;-72
2021/03/02 01:02:03;;;;;;;;;;;;;;;;;;5053207;28;19932;-72
2021/03/02 01:04:29;;;;;;;;;;;;;;;;;;5060382;28;19932;-72
2021/03/02 01:06:55;;;;;;;;;;;;;;;;;;5064762;28;20309;-72
2021/03/02 01:09:21;;;;;;;;;;;;;;;;;;5057270;28;19924;-72
2021/03/02 01:11:47;;;;;;;;;;;;;;;;;;5063212;28;19925;-72
2021/03/02 01:14:13;;;;;;;;;;;;;;;;;;5054228;28;19924;-73
2021/03/02 01:16:39;;;;;;;;;;;;;;;;;;5039418;28;19929;-73
2021/03/02 01:19:05;;;;;;;;;;;;;;;;;;5043258;28;19971;-72
2021/03/02 01:21:31;;;;;;;;;;;;;;;;;;5059945;28;19994;-72
2021/03/02 01:23:56;;;;;;;;;;;;;;;;;;5056486;28;19932;-72
2021/03/02 01:26:22;;;;;;;;;;;;;;;;;;5059234;28;20094;-72
2021/03/02 01:28:48;;;;;;;;;;;;;;;;;;5062656;28;19978;-73
2021/03/02 01:31:14;;;;;;;;;;;;;;;;;;5049700;28;20305;-72
2021/03/02 01:33:40;;;;;;;;;;;;;;;;;;5041805;28;19925;-72
2021/03/02 01:36:06;;;;;;;;;;;;;;;;;;5041542;28;19971;-73
2021/03/02 01:38:32;;;;;;;;;;;;;;;;;;5037623;28;19939;-73
2021/03/02 01:40:58;;;;;;;;;;;;;;;;;;5062543;28;19947;-72
2021/03/02 01:43:24;;;;;;;;;;;;;;;;;;5059287;28;19925;-72
2021/03/02 01:45:50;;;;;;;;;;;;;;;;;;5051137;28;20274;-72
2021/03/02 01:48:15;;;;;;;;;;;;;;;;;;5047882;28;19924;-73
2021/03/02 01:50:41;;;;;;;;;;;;;;;;;;5049051;28;19925;-73
2021/03/02 01:53:07;;;;;;;;;;;;;;;;;;5046605;28;19925;-73
2021/03/02 01:55:33;;;;;;;;;;;;;;;;;;5042510;28;20352;-73
2021/03/02 01:57:59;;;;;;;;;;;;;;;;;;5049032;28;19933;-72
2021/03/02 02:00:25;;;;;;;;;;;;;;;;;;5045486;28;19924;-72
2021/03/02 02:02:51;;;;;;;;;;;;;;;;;;5037898;28;19925;-73
2021/03/02 02:05:17;;;;;;;;;;;;;;;;;;5046158;28;19924;-73
2021/03/02 02:07:43;;;;;;;;;;;;;;;;;;5048375;28;20290;-73
2021/03/02 02:10:08;;;;;;;;;;;;;;;;;;5040966;28;20328;-72
2021/03/02 02:12:34;;;;;;;;;;;;;;;;;;5046802;28;20373;-73
2021/03/02 02:15:00;;;;;;;;;;;;;;;;;;5045778;28;19936;-72
2021/03/02 02:17:26;;;;;;;;;;;;;;;;;;5034161;28;20376;-72
2021/03/02 02:19:52;;;;;;;;;;;;;;;;;;5048354;28;20412;-73
2021/03/02 02:22:18;;;;;;;;;;;;;;;;;;5045628;28;19974;-73
2021/03/02 02:24:44;;;;;;;;;;;;;;;;;;5037687;28;19933;-73
2021/03/02 02:27:10;;;;;;;;;;;;;;;;;;5027046;28;19925;-72
2021/03/02 02:29:36;;;;;;;;;;;;;;;;;;5026726;28;20826;-72
2021/03/02 02:32:01;;;;;;;;;;;;;;;;;;5027923;28;19925;-72
2021/03/02 02:34:27;;;;;;;;;;;;;;;;;;5018488;28;19925;-73
2021/03/02 02:36:53;;;;;;;;;;;;;;;;;;5028082;28;19948;-73
2021/03/02 02:39:19;;;;;;;;;;;;;;;;;;5024650;28;20374;-73
2021/03/02 02:41:45;;;;;;;;;;;;;;;;;;5032137;28;19932;-73
2021/03/02 02:44:11;;;;;;;;;;;;;;;;;;5046409;28;19924;-73
2021/03/02 02:46:37;;;;;;;;;;;;;;;;;;5046228;28;20368;-72
2021/03/02 02:49:03;;;;;;;;;;;;;;;;;;5030814;28;19925;-73
2021/03/02 02:51:29;;;;;;;;;;;;;;;;;;5025047;28;19948;-72
2021/03/02 02:53:55;;;;;;;;;;;;;;;;;;5028120;28;19925;-73
2021/03/02 02:56:21;;;;;;;;;;;;;;;;;;5027727;28;19925;-72
2021/03/02 02:58:47;;;;;;;;;;;;;;;;;;5046644;28;19924;-72
2021/03/02 03:01:13;;;;;;;;;;;;;;;;;;5045497;28;19925;-72
2021/03/02 03:03:39;;;;;;;;;;;;;;;;;;5046227;28;19932;-73
2021/03/02 03:06:05;;;;;;;;;;;;;;;;;;5027054;28;19925;-72
2021/03/02 03:08:31;;;;;;;;;;;;;;;;;;5045160;28;19925;-73
2021/03/02 03:10:57;;;;;;;;;;;;;;;;;;5047806;28;19929;-73
2021/03/02 03:13:23;;;;;;;;;;;;;;;;;;5032053;28;20559;-73
2021/03/02 03:15:49;;;;;;;;;;;;;;;;;;5047165;28;19937;-73
2021/03/02 03:18:15;;;;;;;;;;;;;;;;;;5045321;28;19925;-72
2021/03/02 03:20:41;;;;;;;;;;;;;;;;;;5033046;28;19933;-73
2021/03/02 03:23:07;;;;;;;;;;;;;;;;;;5026193;28;20345;-72
2021/03/02 03:25:34;;;;;;;;;;;;;;;;;;5025299;28;19936;-73
2021/03/02 03:28:00;;;;;;;;;;;;;;;;;;5035866;28;19975;-72
2021/03/02 03:30:26;;;;;;;;;;;;;;;;;;5043718;28;19932;-73
2021/03/02 03:32:52;;;;;;;;;;;;;;;;;;5039121;28;19929;-72
2021/03/02 03:35:19;;;;;;;;;;;;;;;;;;5030164;28;19925;-73
2021/03/02 03:37:45;;;;;;;;;;;;;;;;;;5043872;28;20297;-73
2021/03/02 03:40:11;;;;;;;;;;;;;;;;;;5025209;28;19932;-72
2021/03/02 03:42:37;;;;;;;;;;;;;;;;;;5023047;28;20408;-72
2021/03/02 03:45:03;;;;;;;;;;;;;;;;;;5046418;28;19925;-72
2021/03/02 03:47:29;;;;;;;;;;;;;;;;;;5044046;28;19924;-72
2021/03/02 03:49:55;;;;;;;;;;;;;;;;;;5044211;28;19974;-72
2021/03/02 03:52:21;;;;;;;;;;;;;;;;;;5023355;28;19924;-74
2021/03/02 03:54:47;;;;;;;;;;;;;;;;;;5046886;28;19932;-73
2021/03/02 03:57:13;;;;;;;;;;;;;;;;;;5041031;28;19925;-73
2021/03/02 03:59:38;;;;;;;;;;;;;;;;;;5042941;28;20444;-73
2021/03/02 04:02:04;;;;;;;;;;;;;;;;;;5045735;28;19971;-73
2021/03/02 04:04:30;;;;;;;;;;;;;;;;;;5043816;28;19951;-73
2021/03/02 04:06:56;;;;;;;;;;;;;;;;;;5031117;28;19924;-73
2021/03/02 04:09:22;;;;;;;;;;;;;;;;;;5042920;28;20437;-72
2021/03/02 04:11:48;;;;;;;;;;;;;;;;;;5046557;28;20393;-73
2021/03/02 04:14:15;;;;;;;;;;;;;;;;;;5037823;28;19924;-72
2021/03/02 04:16:40;;;;;;;;;;;;;;;;;;5044445;28;19929;-73
2021/03/02 04:19:06;;;;;;;;;;;;;;;;;;5045390;28;19931;-73
2021/03/02 04:21:32;;;;;;;;;;;;;;;;;;5044045;28;19924;-73
2021/03/02 04:23:58;;;;;;;;;;;;;;;;;;5036210;28;19925;-73
2021/03/02 04:26:24;;;;;;;;;;;;;;;;;;5043308;28;20460;-73
2021/03/02 04:28:50;;;;;;;;;;;;;;;;;;5039308;28;19925;-73
2021/03/02 04:31:16;;;;;;;;;;;;;;;;;;5043899;28;19924;-73
2021/03/02 04:33:42;;;;;;;;;;;;;;;;;;5047255;28;19931;-73
2021/03/02 04:36:09;;;;;;;;;;;;;;;;;;5048136;28;19932;-73
2021/03/02 04:38:35;;;;;;;;;;;;;;;;;;5043381;28;19933;-71
2021/03/02 04:41:01;;;;;;;;;;;;;;;;;;5057824;28;19932;-73
2021/03/02 04:43:27;;;;;;;;;;;;;;;;;;5044515;28;19944;-72
2021/03/02 04:45:53;;;;;;;;;;;;;;;;;;5051937;28;19983;-74
2021/03/02 04:48:19;;;;;;;;;;;;;;;;;;5043582;28;19929;-72
2021/03/02 04:50:45;;;;;;;;;;;;;;;;;;5046444;28;19925;-72
2021/03/02 04:53:11;;;;;;;;;;;;;;;;;;5038578;28;19951;-74
2021/03/02 04:55:37;;;;;;;;;;;;;;;;;;5022594;28;20277;-73
2021/03/02 04:58:03;;;;;;;;;;;;;;;;;;5025971;28;19925;-73
2021/03/02 05:00:29;;;;;;;;;;;;;;;;;;5028655;28;19932;-72
2021/03/02 05:02:55;;;;;;;;;;;;;;;;;;5046632;28;19932;-72
2021/03/02 05:05:21;;;;;;;;;;;;;;;;;;5031248;28;20394;-71
2021/03/02 05:07:46;;;;;;;;;;;;;;;;;;5046710;28;19947;-72
2021/03/02 05:10:12;;;;;;;;;;;;;;;;;;5023970;28;19932;-72
2021/03/02 05:12:38;;;;;;;;;;;;;;;;;;5025557;28;19933;-72
2021/03/02 05:15:04;;;;;;;;;;;;;;;;;;5028168;28;20286;-72
2021/03/02 05:17:30;;;;;;;;;;;;;;;;;;5043660;28;19925;-72
2021/03/02 05:19:56;;;;;;;;;;;;;;;;;;5046051;28;19931;-73
2021/03/02 05:22:22;;;;;;;;;;;;;;;;;;5033339;28;19979;-72
2021/03/02 05:24:48;;;;;;;;;;;;;;;;;;5022950;28;19925;-72
2021/03/02 05:27:14;;;;;;;;;;;;;;;;;;5027113;28;19929;-72
2021/03/02 05:29:39;;;;;;;;;;;;;;;;;;5028366;28;19957;-72
2021/03/02 05:32:05;;;;;;;;;;;;;;;;;;5038952;28;20377;-72
2021/03/02 05:34:32;;;;;;;;;;;;;;;;;;5046662;28;19924;-73
2021/03/02 05:36:58;;;;;;;;;;;;;;;;;;5049137;28;20340;-72
2021/03/02 05:39:24;;;;;;;;;;;;;;;;;;5035168;28;19933;-73
2021/03/02 05:41:50;;;;;;;;;;;;;;;;;;5049055;28;19940;-73
2021/03/02 05:44:16;;;;;;;;;;;;;;;;;;5046716;28;19928;-74
2021/03/02 05:46:42;;;;;;;;;;;;;;;;;;5037097;28;20386;-72
2021/03/02 05:49:07;;;;;;;;;;;;;;;;;;5047668;28;19974;-73
2021/03/02 05:51:34;;;;;;;;;;;;;;;;;;5047130;28;19925;-72
2021/03/02 05:54:00;;;;;;;;;;;;;;;;;;5049171;28;20356;-73
2021/03/02 05:56:26;;;;;;;;;;;;;;;;;;5025684;28;19925;-73
2021/03/02 05:58:52;;;;;;;;;;;;;;;;;;5028979;28;19925;-73
2021/03/02 06:01:18;;;;;;;;;;;;;;;;;;5022319;28;19925;-74
2021/03/02 06:03:44;;;;;;;;;;;;;;;;;;5047604;28;19925;-73
2021/03/02 06:06:10;;;;;;;;;;;;;;;;;;5047268;28;19925;-73
2021/03/02 06:08:36;;;;;;;;;;;;;;;;;;5047406;28;19976;-73
2021/03/02 06:11:02;;;;;;;;;;;;;;;;;;5046988;28;19925;-73
2021/03/02 06:13:28;;;;;;;;;;;;;;;;;;5026125;28;19924;-73
2021/03/02 06:15:54;;;;;;;;;;;;;;;;;;5048092;28;19925;-72
2021/03/02 06:18:20;;;;;;;;;;;;;;;;;;5035530;28;20642;-73
2021/03/02 06:20:46;;;;;;;;;;;;;;;;;;5048526;28;19925;-73
2021/03/02 06:23:12;;;;;;;;;;;;;;;;;;5046331;28;19924;-73
2021/03/02 06:25:38;;;;;;;;;;;;;;;;;;5047418;28;19931;-73
2021/03/02 06:28:04;;;;;;;;;;;;;;;;;;5022412;28;19932;-73
2021/03/02 06:30:30;;;;;;;;;;;;;;;;;;5025806;28;19929;-72
2021/03/02 06:32:56;;;;;;;;;;;;;;;;;;5028830;28;20001;-72
2021/03/02 06:35:22;;;;;;;;;;;;;;;;;;5024047;28;19925;-72
2021/03/02 06:37:48;;;;;;;;;;;;;;;;;;5028287;28;19925;-72
2021/03/02 06:40:14;;;;;;;;;;;;;;;;;;5025817;28;19932;-72
2021/03/02 06:42:40;;;;;;;;;;;;;;;;;;5020866;28;19939;-72
2021/03/02 06:45:06;;;;;;;;;;;;;;;;;;5027464;28;19925;-73
2021/03/02 06:47:32;;;;;;;;;;;;;;;;;;5026517;28;19925;-73
2021/03/02 06:49:58;;;;;;;;;;;;;;;;;;5037038;28;19932;-73
2021/03/02 06:52:24;;;;;;;;;;;;;;;;;;5044385;28;19925;-74
2021/03/02 06:54:50;;;;;;;;;;;;;;;;;;5047997;28;19925;-73
2021/03/02 06:57:16;;;;;;;;;;;;;;;;;;5045056;28;19924;-73
2021/03/02 06:59:42;;;;;;;;;;;;;;;;;;5025307;28;19947;-74
2021/03/02 07:02:08;;;;;;;;;;;;;;;;;;5026852;28;19929;-73
2021/03/02 07:04:33;;;;;;;;;;;;;;;;;;5023336;28;19944;-73
2021/03/02 07:07:04;;;;;;;;;;;;;;;;;;5047763;28;20271;-74
2021/03/02 07:09:30;;;;;;;;;;;;;;;;;;5045208;28;19925;-73
2021/03/02 07:11:57;;;;;;;;;;;;;;;;;;5047719;28;19932;-73
2021/03/02 07:14:24;;;;;;;;;;;;;;;;;;5034559;28;19940;-73
2021/03/02 07:16:50;;;;;;;;;;;;;;;;;;5047498;28;20036;-73
2021/03/02 07:19:16;;;;;;;;;;;;;;;;;;5045012;28;20024;-73
2021/03/02 07:21:42;;;;;;;;;;;;;;;;;;5040927;28;19924;-73
2021/03/02 07:24:09;;;;;;;;;;;;;;;;;;5048921;28;19925;-73
2021/03/02 07:26:35;;;;;;;;;;;;;;;;;;5047060;28;19929;-73
2021/03/02 07:29:00;;;;;;;;;;;;;;;;;;5047423;28;19925;-73
2021/03/02 07:31:26;;;;;;;;;;;;;;;;;;5024864;28;19975;-73
2021/03/02 07:33:52;;;;;;;;;;;;;;;;;;5031454;28;19928;-73
2021/03/02 07:36:18;;;;;;;;;;;;;;;;;;5028457;28;19925;-73
2021/03/02 07:38:44;;;;;;;;;;;;;;;;;;5048332;28;19932;-74
2021/03/02 07:41:10;;;;;;;;;;;;;;;;;;5030046;28;19933;-73
2021/03/02 07:43:36;;;;;;;;;;;;;;;;;;5025828;28;20418;-73
2021/03/02 07:46:02;;;;;;;;;;;;;;;;;;5025326;28;19952;-74
2021/03/02 07:48:28;;;;;;;;;;;;;;;;;;5034842;28;19937;-73
2021/03/02 07:50:54;;;;;;;;;;;;;;;;;;5046788;28;19939;-73
2021/03/02 07:53:20;;;;;;;;;;;;;;;;;;5036680;28;19929;-73
2021/03/02 07:55:46;;;;;;;;;;;;;;;;;;5046793;28;19947;-73
2021/03/02 07:58:12;;;;;;;;;;;;;;;;;;5044796;28;19924;-73
2021/03/02 08:00:38;;;;;;;;;;;;;;;;;;5043922;28;19974;-73
2021/03/02 08:03:04;;;;;;;;;;;;;;;;;;5028795;28;20367;-73
2021/03/02 08:05:30;;;;;;;;;;;;;;;;;;5027350;28;19933;-74
2021/03/02 08:07:56;;;;;;;;;;;;;;;;;;5035471;28;19932;-73
2021/03/02 08:10:22;;;;;;;;;;;;;;;;;;5027582;28;19983;-73
2021/03/02 08:12:48;;;;;;;;;;;;;;;;;;5035468;28;19924;-73
2021/03/02 08:15:14;;;;;;;;;;;;;;;;;;5032144;28;19929;-74
2021/03/02 08:17:40;;;;;;;;;;;;;;;;;;5034247;28;19929;-74
2021/03/02 08:20:06;;;;;;;;;;;;;;;;;;5019488;28;19925;-74
2021/03/02 08:22:33;;;;;;;;;;;;;;;;;;5029442;28;19932;-74
2021/03/02 08:24:59;;;;;;;;;;;;;;;;;;5046237;28;19929;-74
2021/03/02 08:27:25;;;;;;;;;;;;;;;;;;5025479;28;19940;-74
2021/03/02 08:29:51;;;;;;;;;;;;;;;;;;5038772;28;19925;-75
2021/03/02 08:32:17;;;;;;;;;;;;;;;;;;5023749;28;19932;-74
2021/03/02 08:34:43;;;;;;;;;;;;;;;;;;5032181;28;19936;-75
2021/03/02 08:37:09;;;;;;;;;;;;;;;;;;5037680;28;19925;-74
2021/03/02 08:39:35;;;;;;;;;;;;;;;;;;5039936;28;20080;-76
2021/03/02 08:42:01;;;;;;;;;;;;;;;;;;5039045;28;19971;-73
2021/03/02 08:44:26;;;;;;;;;;;;;;;;;;5034666;28;19925;-74
2021/03/02 08:46:52;;;;;;;;;;;;;;;;;;5034410;28;19936;-73
2021/03/02 08:49:18;;;;;;;;;;;;;;;;;;5023848;28;19925;-75
2021/03/02 08:51:44;;;;;;;;;;;;;;;;;;5018912;28;20309;-76
2021/03/02 08:54:10;;;;;;;;;;;;;;;;;;5025924;28;19932;-77
2021/03/02 08:56:36;;;;;;;;;;;;;;;;;;5033607;28;19945;-74
2021/03/02 08:59:02;;;;;;;;;;;;;;;;;;5050167;28;19924;-75
2021/03/02 09:01:28;;;;;;;;;;;;;;;;;;5045228;28;19931;-74
2021/03/02 09:03:54;;;;;;;;;;;;;;;;;;5050559;28;20321;-74
2021/03/02 09:06:20;;;;;;;;;;;;;;;;;;5037127;28;19932;-73
2021/03/02 09:08:46;;;;;;;;;;;;;;;;;;5036325;28;19928;-74
2021/03/02 09:11:12;;;;;;;;;;;;;;;;;;5040415;28;19935;-75
2021/03/02 09:13:39;;;;;;;;;;;;;;;;;;5037283;28;19924;-75
2021/03/02 09:16:05;;;;;;;;;;;;;;;;;;5049774;28;20460;-73
2021/03/02 09:18:31;;;;;;;;;;;;;;;;;;5048040;28;19932;-74
2021/03/02 09:20:57;;;;;;;;;;;;;;;;;;5050178;28;19925;-74
2021/03/02 09:23:23;;;;;;;;;;;;;;;;;;5028985;28;19931;-74
2021/03/02 09:25:49;;;;;;;;;;;;;;;;;;5048390;28;19935;-72
2021/03/02 09:28:15;;;;;;;;;;;;;;;;;;5043290;28;19931;-73
2021/03/02 09:30:40;;;;;;;;;;;;;;;;;;5048280;28;19925;-73
2021/03/02 09:33:06;;;;;;;;;;;;;;;;;;5049211;28;19971;-72
2021/03/02 09:35:32;;;;;;;;;;;;;;;;;;5047463;28;20378;-74
2021/03/02 09:37:58;;;;;;;;;;;;;;;;;;5033295;28;19925;-74
2021/03/02 09:40:24;;;;;;;;;;;;;;;;;;5029370;28;19975;-74
2021/03/02 09:42:50;;;;;;;;;;;;;;;;;;5039475;28;19944;-74
2021/03/02 09:45:17;;;;;;;;;;;;;;;;;;5023542;28;20317;-74
2021/03/02 09:47:42;;;;;;;;;;;;;;;;;;5034285;28;19925;-75
2021/03/02 09:50:08;;;;;;;;;;;;;;;;;;5028963;28;19925;-74
2021/03/02 09:52:34;;;;;;;;;;;;;;;;;;5038590;28;20483;-75
2021/03/02 09:55:00;;;;;;;;;;;;;;;;;;5038899;28;19947;-71
2021/03/02 09:57:26;;;;;;;;;;;;;;;;;;5040972;28;20326;-71
2021/03/02 09:59:52;;;;;;;;;;;;;;;;;;5041079;28;20058;-72
2021/03/02 10:02:18;;;;;;;;;;;;;;;;;;5025726;28;19933;-71
2021/03/02 10:04:44;;;;;;;;;;;;;;;;;;5027850;28;19925;-73
2021/03/02 10:07:10;;;;;;;;;;;;;;;;;;5032568;28;19929;-71
2021/03/02 10:09:36;;;;;;;;;;;;;;;;;;5033089;28;19925;-73
2021/03/02 10:12:02;;;;;;;;;;;;;;;;;;5039809;28;19947;-73
2021/03/02 10:14:27;;;;;;;;;;;;;;;;;;5042162;28;19928;-74
2021/03/02 10:16:53;;;;;;;;;;;;;;;;;;5045261;28;19925;-72
2021/03/02 10:19:21;;;;;;;;;;;;;;;;;;5026946;28;20617;-73
2021/03/02 10:21:47;;;;;;;;;;;;;;;;;;5028828;28;19931;-74
2021/03/02 10:24:13;;;;;;;;;;;;;;;;;;5019608;28;20755;-74
2021/03/02 10:26:38;;;;;;;;;;;;;;;;;;5030386;28;20397;-73
2021/03/02 10:29:05;;;;;;;;;;;;;;;;;;5046187;28;19925;-72
2021/03/02 10:31:31;;;;;;;;;;;;;;;;;;5032667;28;19951;-74
2021/03/02 10:33:57;;;;;;;;;;;;;;;;;;5028275;28;19932;-73
2021/03/02 10:36:23;;;;;;;;;;;;;;;;;;5030464;28;20356;-74
2021/03/02 10:38:49;;;;;;;;;;;;;;;;;;5031071;28;19929;-73
2021/03/02 10:41:15;;;;;;;;;;;;;;;;;;5037036;28;19979;-73
2021/03/02 10:43:41;;;;;;;;;;;;;;;;;;5028640;28;20400;-73
2021/03/02 10:46:07;;;;;;;;;;;;;;;;;;5021265;28;19926;-74
2021/03/02 10:48:33;;;;;;;;;;;;;;;;;;5048506;28;19929;-73
2021/03/02 10:50:59;;;;;;;;;;;;;;;;;;5045440;28;19929;-73
2021/03/02 10:53:25;;;;;;;;;;;;;;;;;;5028039;28;19975;-74
2021/03/02 10:55:51;;;;;;;;;;;;;;;;;;5021645;28;20294;-73
2021/03/02 10:58:17;;;;;;;;;;;;;;;;;;5023782;28;20408;-75
2021/03/02 11:00:43;;;;;;;;;;;;;;;;;;5047699;28;19925;-74
2021/03/02 11:03:09;;;;;;;;;;;;;;;;;;5045722;28;19944;-74
2021/03/02 11:05:35;;;;;;;;;;;;;;;;;;5055957;28;19932;-75
2021/03/02 11:08:01;;;;;;;;;;;;;;;;;;5051703;28;20374;-73
2021/03/02 11:10:27;;;;;;;;;;;;;;;;;;5037569;28;19936;-73
2021/03/02 11:12:53;;;;;;;;;;;;;;;;;;5042346;28;20357;-73
2021/03/02 11:15:19;;;;;;;;;;;;;;;;;;5037375;28;20352;-73
2021/03/02 11:17:44;;;;;;;;;;;;;;;;;;5047650;28;19925;-74
2021/03/02 11:20:10;;;;;;;;;;;;;;;;;;5037542;28;20144;-74
2021/03/02 11:22:36;;;;;;;;;;;;;;;;;;5044706;28;20293;-74
2021/03/02 11:25:02;;;;;;;;;;;;;;;;;;5028887;28;19932;-74
2021/03/02 11:27:28;;;;;;;;;;;;;;;;;;5034632;28;19947;-73
2021/03/02 11:29:54;;;;;;;;;;;;;;;;;;5039637;28;19925;-75
2021/03/02 11:32:20;;;;;;;;;;;;;;;;;;5033626;28;19936;-76
2021/03/02 11:34:46;;;;;;;;;;;;;;;;;;4986092;28;19924;-77
2021/03/02 11:47:44;;;;;;;;;;;;;;;;;;5054164;27;20024;-77
2021/03/02 11:50:10;;;;;;;;;;;;;;;;;;5051180;27;19993;-77
2021/03/02 11:52:36;;;;;;;;;;;;;;;;;;5048504;27;19925;-76
2021/03/02 11:55:02;;;;;;;;;;;;;;;;;;5079199;28;20015;-77
2021/03/02 11:57:28;;;;;;;;;;;;;;;;;;5043744;27;19981;-76
2021/03/02 11:59:54;;;;;;;;;;;;;;;;;;5045703;28;20028;-78
2021/03/02 12:02:20;;;;;;;;;;;;;;;;;;5061347;28;19932;-77
2021/03/02 12:04:46;;;;;;;;;;;;;;;;;;5051280;27;19976;-79
2021/03/02 12:07:12;;;;;;;;;;;;;;;;;;5062351;28;19977;-76
2021/03/02 12:09:38;;;;;;;;;;;;;;;;;;5053981;27;19940;-77
2021/03/02 12:12:04;;;;;;;;;;;;;;;;;;5059587;27;19929;-80
2021/03/02 12:14:30;;;;;;;;;;;;;;;;;;5058290;27;19924;-77
2021/03/02 12:16:56;;;;;;;;;;;;;;;;;;5057991;28;20429;-77
2021/03/02 12:19:21;;;;;;;;;;;;;;;;;;5056312;27;19925;-81
2021/03/02 12:21:47;;;;;;;;;;;;;;;;;;5007989;27;20445;-78
2021/03/02 12:24:13;;;;;;;;;;;;;;;;;;5024181;28;19925;-77
2021/03/02 12:26:39;;;;;;;;;;;;;;;;;;5000019;28;19926;-77
2021/03/02 12:29:07;;;;;;;;;;;;;;;;;;5004885;28;19933;-78
2021/03/02 12:31:32;;;;;;;;;;;;;;;;;;5091089;28;19930;-79
2021/03/02 12:33:58;;;;;;;;;;;;;;;;;;5020168;28;19933;-78
2021/03/02 12:36:24;;;;;;;;;;;;;;;;;;5016312;28;20020;-77
2021/03/02 12:38:50;;;;;;;;;;;;;;;;;;5015130;28;20336;-78
2021/03/02 12:41:16;;;;;;;;;;;;;;;;;;5019748;28;19929;-76
2021/03/02 12:43:42;;;;;;;;;;;;;;;;;;5007440;28;19926;-77
2021/03/02 12:46:08;;;;;;;;;;;;;;;;;;5021712;28;20473;-78
2021/03/02 12:48:34;;;;;;;;;;;;;;;;;;4999110;28;19925;-76
2021/03/02 12:51:00;;;;;;;;;;;;;;;;;;5005273;28;19933;-76
2021/03/02 12:53:26;;;;;;;;;;;;;;;;;;5002673;28;19929;-76
2021/03/02 12:55:52;;;;;;;;;;;;;;;;;;5003970;28;19926;-76
2021/03/02 12:58:17;;;;;;;;;;;;;;;;;;4995864;28;19925;-76
2021/03/02 13:00:43;;;;;;;;;;;;;;;;;;4996147;28;19945;-75
2021/03/02 13:03:09;;;;;;;;;;;;;;;;;;5010293;28;20294;-77
2021/03/02 13:05:35;;;;;;;;;;;;;;;;;;4998688;28;19934;-77
2021/03/02 13:08:02;;;;;;;;;;;;;;;;;;5002996;28;20398;-79
2021/03/02 13:10:28;;;;;;;;;;;;;;;;;;4990352;28;19926;-75
2021/03/02 13:12:54;;;;;;;;;;;;;;;;;;5006244;28;19929;-78
2021/03/02 13:15:20;;;;;;;;;;;;;;;;;;5035475;28;19926;-77
2021/03/02 13:17:46;;;;;;;;;;;;;;;;;;5004700;28;19929;-77
2021/03/02 13:20:12;;;;;;;;;;;;;;;;;;5003559;28;19949;-77
2021/03/02 13:22:38;;;;;;;;;;;;;;;;;;4996486;28;19929;-78
2021/03/02 13:25:04;;;;;;;;;;;;;;;;;;5002953;28;19983;-78
2021/03/02 13:27:30;;;;;;;;;;;;;;;;;;4990217;28;20234;-77
2021/03/02 13:29:56;;;;;;;;;;;;;;;;;;5007269;28;19927;-76
2021/03/02 13:32:22;;;;;;;;;;;;;;;;;;5108490;28;19923;-77
2021/03/02 13:34:48;;;;;;;;;;;;;;;;;;4997195;28;19926;-76
2021/03/02 13:37:13;;;;;;;;;;;;;;;;;;4987313;28;19947;-77
2021/03/02 13:39:39;;;;;;;;;;;;;;;;;;5006725;28;19932;-78
2021/03/02 13:42:05;;;;;;;;;;;;;;;;;;5003129;28;20036;-79
2021/03/02 13:44:31;;;;;;;;;;;;;;;;;;4995431;28;20328;-77
2021/03/02 13:46:57;;;;;;;;;;;;;;;;;;5016386;28;20440;-74
2021/03/02 13:49:23;;;;;;;;;;;;;;;;;;5005623;28;19929;-77
2021/03/02 13:51:49;;;;;;;;;;;;;;;;;;4995537;28;20544;-76
2021/03/02 13:54:15;;;;;;;;;;;;;;;;;;5000939;28;19933;-76
2021/03/02 13:56:41;;;;;;;;;;;;;;;;;;4998736;28;20378;-75
2021/03/02 13:59:07;;;;;;;;;;;;;;;;;;4993246;28;19955;-76
2021/03/02 14:01:33;;;;;;;;;;;;;;;;;;4999482;28;19926;-75
2021/03/02 14:03:59;;;;;;;;;;;;;;;;;;4999479;28;19929;-75
2021/03/02 14:06:25;;;;;;;;;;;;;;;;;;4996480;28;19926;-75
2021/03/02 14:08:51;;;;;;;;;;;;;;;;;;4997498;28;19933;-76
2021/03/02 14:11:17;;;;;;;;;;;;;;;;;;4997593;28;19940;-76
2021/03/02 14:13:43;;;;;;;;;;;;;;;;;;4997104;28;20360;-77
2021/03/02 14:16:09;;;;;;;;;;;;;;;;;;5002634;28;19926;-75
2021/03/02 14:18:34;;;;;;;;;;;;;;;;;;5004882;28;19926;-75
2021/03/02 14:21:00;;;;;;;;;;;;;;;;;;5014484;28;19924;-75
2021/03/02 14:23:26;;;;;;;;;;;;;;;;;;5004782;28;19925;-74
2021/03/02 14:25:52;;;;;;;;;;;;;;;;;;4987940;28;20341;-77
2021/03/02 14:28:18;;;;;;;;;;;;;;;;;;5004452;28;20438;-76
2021/03/02 14:30:44;;;;;;;;;;;;;;;;;;4992843;28;19971;-76
2021/03/02 14:33:10;;;;;;;;;;;;;;;;;;5003862;28;19929;-78
2021/03/02 14:35:36;;;;;;;;;;;;;;;;;;5003899;28;19929;-75
2021/03/02 14:38:03;;;;;;;;;;;;;;;;;;5002076;28;19925;-76
2021/03/02 14:40:29;;;;;;;;;;;;;;;;;;5002928;28;19932;-76
2021/03/02 14:42:55;;;;;;;;;;;;;;;;;;5021424;28;20353;-76
2021/03/02 14:45:22;;;;;;;;;;;;;;;;;;5015324;28;19954;-75
2021/03/02 14:47:48;;;;;;;;;;;;;;;;;;4987893;28;19930;-75
2021/03/02 14:50:14;;;;;;;;;;;;;;;;;;5005504;28;19994;-75
2021/03/02 14:52:40;;;;;;;;;;;;;;;;;;5002199;28;19926;-77
2021/03/02 14:55:06;;;;;;;;;;;;;;;;;;4997189;28;19934;-75
2021/03/02 14:57:32;;;;;;;;;;;;;;;;;;4998201;28;19979;-76
2021/03/02 14:59:57;;;;;;;;;;;;;;;;;;5042238;28;19930;-76
2021/03/02 15:02:23;;;;;;;;;;;;;;;;;;4997566;28;19925;-76
2021/03/02 15:04:49;;;;;;;;;;;;;;;;;;4993858;28;20731;-76
2021/03/02 15:07:15;;;;;;;;;;;;;;;;;;4997786;28;19971;-76
2021/03/02 15:09:41;;;;;;;;;;;;;;;;;;4992347;28;19929;-78
2021/03/02 15:12:07;;;;;;;;;;;;;;;;;;4995534;28;20648;-78
2021/03/02 15:14:33;;;;;;;;;;;;;;;;;;5005220;28;19933;-76
2021/03/02 15:16:59;;;;;;;;;;;;;;;;;;4993786;28;19933;-76
2021/03/02 15:19:25;;;;;;;;;;;;;;;;;;5005779;28;19929;-77
2021/03/02 15:21:51;;;;;;;;;;;;;;;;;;4999387;28;19933;-77
2021/03/02 15:24:17;;;;;;;;;;;;;;;;;;5004932;28;19925;-77
2021/03/02 15:26:42;;;;;;;;;;;;;;;;;;4995004;28;19926;-78
2021/03/02 15:29:08;;;;;;;;;;;;;;;;;;4986724;28;19926;-77
2021/03/02 15:31:34;;;;;;;;;;;;;;;;;;5003516;28;20336;-78
2021/03/02 15:34:00;;;;;;;;;;;;;;;;;;5017419;28;20445;-78
2021/03/02 15:36:26;;;;;;;;;;;;;;;;;;5043965;28;19930;-77
2021/03/02 15:38:52;;;;;;;;;;;;;;;;;;5002447;28;20338;-79
2021/03/02 15:41:18;;;;;;;;;;;;;;;;;;5003172;28;20370;-79
2021/03/02 15:43:44;;;;;;;;;;;;;;;;;;4991875;28;19968;-79
2021/03/02 15:46:10;;;;;;;;;;;;;;;;;;5003323;28;19930;-77
2021/03/02 15:48:36;;;;;;;;;;;;;;;;;;4994516;28;19930;-78
2021/03/02 15:51:02;;;;;;;;;;;;;;;;;;5004645;28;19961;-78
2021/03/02 15:53:28;;;;;;;;;;;;;;;;;;5007136;28;19934;-78
2021/03/02 15:55:54;;;;;;;;;;;;;;;;;;5005152;28;19942;-78
2021/03/02 15:58:20;;;;;;;;;;;;;;;;;;4997940;28;19926;-76
2021/03/02 16:00:46;;;;;;;;;;;;;;;;;;4986715;28;19929;-78
2021/03/02 16:03:12;;;;;;;;;;;;;;;;;;5003179;28;19925;-76
2021/03/02 16:05:38;;;;;;;;;;;;;;;;;;4977665;28;19926;-76
2021/03/02 16:08:04;;;;;;;;;;;;;;;;;;4991659;28;19933;-76
2021/03/02 16:10:30;;;;;;;;;;;;;;;;;;5003758;28;20303;-77
2021/03/02 16:12:55;;;;;;;;;;;;;;;;;;4996198;28;19935;-76
2021/03/02 16:15:21;;;;;;;;;;;;;;;;;;4997085;28;19925;-76
2021/03/02 16:17:47;;;;;;;;;;;;;;;;;;5000734;28;19933;-77
2021/03/02 16:20:13;;;;;;;;;;;;;;;;;;4982737;28;19930;-76
2021/03/02 16:22:39;;;;;;;;;;;;;;;;;;4983577;28;19937;-78
2021/03/02 16:25:05;;;;;;;;;;;;;;;;;;4994844;28;19929;-76
2021/03/02 16:27:31;;;;;;;;;;;;;;;;;;5006157;28;19933;-76
2021/03/02 16:29:57;;;;;;;;;;;;;;;;;;4992458;28;19978;-76
2021/03/02 16:32:22;;;;;;;;;;;;;;;;;;5005638;28;19973;-77
2021/03/02 16:34:48;;;;;;;;;;;;;;;;;;5031807;28;19929;-77
2021/03/02 16:37:14;;;;;;;;;;;;;;;;;;5006291;28;20333;-76
2021/03/02 16:39:40;;;;;;;;;;;;;;;;;;5004129;28;19926;-75
2021/03/02 16:42:06;;;;;;;;;;;;;;;;;;5033543;28;19977;-77
2021/03/02 16:44:32;;;;;;;;;;;;;;;;;;5017966;28;20405;-76
2021/03/02 16:46:58;;;;;;;;;;;;;;;;;;4990292;28;19926;-76
2021/03/02 16:49:24;;;;;;;;;;;;;;;;;;4989312;28;20344;-75
2021/03/02 16:51:50;;;;;;;;;;;;;;;;;;4995689;28;19926;-77
2021/03/02 16:54:16;;;;;;;;;;;;;;;;;;5007079;28;20482;-76
2021/03/02 16:56:41;;;;;;;;;;;;;;;;;;5004600;28;20289;-78